Time;durP1;ratioP1;P1;durP2;ratioP2;P2;SDS_P1;SDS_P2;PMS_P1;PMS_P2;Temp;Humidity;BMP_temperature;BMP_pressure;BME280_temperature;BME280_humidity;BME280_pressure;Samples;Min_cycle;Max_cycle;Signal;HPM_P1;HPM_P2
2023/10/05 00:01:24;;;;;;;7.00;4.50;;;22.80;52.00;;;;;;5012121;28;20448;-80
2023/10/05 00:03:52;;;;;;;5.40;4.13;;;22.80;52.20;;;;;;5005880;28;20437;-77
2023/10/05 00:06:24;;;;;;;4.33;3.40;;;22.80;52.20;;;;;;5011202;28;20449;-79
2023/10/05 00:08:53;;;;;;;5.70;4.13;;;22.80;52.20;;;;;;5023838;28;20432;-77
2023/10/05 00:11:29;;;;;;;6.07;4.87;;;22.80;52.30;;;;;;5022951;28;20423;-78
2023/10/05 00:13:58;;;;;;;8.73;4.00;;;22.80;52.30;;;;;;5001661;28;20471;-79
2023/10/05 00:16:36;;;;;;;6.10;4.13;;;22.80;52.40;;;;;;5015562;28;20492;-78
2023/10/05 00:19:08;;;;;;;4.93;4.00;;;22.80;52.40;;;;;;5014954;28;20456;-77
2023/10/05 00:21:36;;;;;;;6.20;4.27;;;22.80;52.60;;;;;;5012954;28;20475;-77
2023/10/05 00:24:06;;;;;;;6.30;4.37;;;22.80;52.50;;;;;;4995237;28;20501;-78
2023/10/05 00:26:34;;;;;;;5.43;3.53;;;22.80;52.40;;;;;;4997451;28;20437;-78
2023/10/05 00:29:12;;;;;;;6.50;3.67;;;22.70;52.50;;;;;;5015119;28;20414;-79
2023/10/05 00:31:41;;;;;;;3.80;3.40;;;22.70;52.60;;;;;;4995962;28;20594;-78
2023/10/05 00:34:13;;;;;;;4.20;3.70;;;22.70;52.60;;;;;;4995481;28;20469;-78
2023/10/05 00:36:44;;;;;;;5.70;4.20;;;22.70;52.70;;;;;;5014643;28;20447;-78
2023/10/05 00:39:15;;;;;;;6.10;4.00;;;22.70;52.50;;;;;;5015712;28;20444;-79
2023/10/05 00:41:44;;;;;;;4.23;3.63;;;22.70;52.80;;;;;;5015754;28;20452;-78
2023/10/05 00:44:12;;;;;;;4.23;3.63;;;22.70;52.80;;;;;;5016272;28;20555;-79
2023/10/05 00:46:42;;;;;;;4.90;3.90;;;22.70;52.90;;;;;;5016544;28;20450;-78
2023/10/05 00:49:16;;;;;;;6.13;3.97;;;22.70;52.80;;;;;;5016675;28;20448;-79
2023/10/05 00:51:55;;;;;;;3.60;3.30;;;22.70;52.90;;;;;;5016091;28;20553;-79
2023/10/05 00:54:29;;;;;;;4.67;3.80;;;22.70;53.00;;;;;;5012902;28;20467;-79
2023/10/05 00:56:58;;;;;;;5.17;3.87;;;22.60;52.80;;;;;;5016862;28;20515;-78
2023/10/05 00:59:27;;;;;;;4.57;4.10;;;22.70;52.90;;;;;;5015902;28;21032;-79
2023/10/05 01:02:05;;;;;;;9.70;3.83;;;22.70;53.00;;;;;;5016632;28;20475;-80
2023/10/05 01:04:52;;;;;;;4.37;3.77;;;22.60;52.90;;;;;;5018003;28;20468;-80
2023/10/05 01:07:29;;;;;;;4.53;3.50;;;22.60;53.10;;;;;;5010692;28;20484;-79
2023/10/05 01:12:43;;;;;;;4.70;3.90;;;22.60;53.20;;;;;;5013849;28;20476;-78
2023/10/05 01:15:15;;;;;;;4.50;3.87;;;22.60;53.00;;;;;;5014773;28;20468;-78
2023/10/05 01:17:45;;;;;;;5.53;3.37;;;22.60;53.20;;;;;;5014804;28;20452;-78
2023/10/05 01:20:22;;;;;;;4.43;3.30;;;22.60;53.20;;;;;;5007585;28;20459;-79
2023/10/05 01:22:50;;;;;;;5.87;3.40;;;22.60;53.20;;;;;;5016339;28;20474;-79
2023/10/05 01:25:20;;;;;;;3.23;3.03;;;22.60;53.20;;;;;;5010555;28;20487;-79
2023/10/05 01:27:50;;;;;;;4.00;3.40;;;22.60;53.30;;;;;;5010075;28;20529;-79
2023/10/05 01:30:19;;;;;;;5.07;3.50;;;22.60;53.30;;;;;;5025645;28;20444;-79
2023/10/05 01:32:47;;;;;;;3.93;3.30;;;22.60;53.10;;;;;;5022969;28;20987;-79
2023/10/05 01:35:17;;;;;;;3.50;3.20;;;22.50;53.30;;;;;;5014436;28;20481;-80
2023/10/05 01:37:46;;;;;;;3.23;2.93;;;22.50;53.20;;;;;;4994805;28;20434;-79
2023/10/05 01:40:14;;;;;;;4.77;3.30;;;22.50;53.40;;;;;;4995331;28;20424;-78
2023/10/05 01:42:47;;;;;;;3.97;3.20;;;22.50;53.30;;;;;;5011097;28;20468;-79
2023/10/05 01:45:16;;;;;;;3.67;3.30;;;22.50;53.50;;;;;;5014320;28;20451;-79
2023/10/05 01:47:45;;;;;;;3.10;2.90;;;22.50;53.40;;;;;;5021965;28;20444;-79
2023/10/05 01:50:19;;;;;;;3.70;3.40;;;22.50;53.40;;;;;;5022065;28;20429;-79
2023/10/05 01:52:55;;;;;;;5.00;3.00;;;22.50;53.30;;;;;;5014610;28;20853;-78
2023/10/05 01:55:24;;;;;;;3.47;2.80;;;22.50;53.50;;;;;;5006448;28;20501;-79
2023/10/05 01:57:54;;;;;;;3.30;2.93;;;22.50;53.50;;;;;;4998575;28;20437;-79
2023/10/05 02:00:23;;;;;;;3.17;2.83;;;22.50;53.50;;;;;;5008921;28;20524;-79
2023/10/05 02:02:55;;;;;;;4.17;2.93;;;22.50;53.60;;;;;;4995776;28;21054;-79
2023/10/05 02:05:24;;;;;;;4.37;2.97;;;22.50;53.60;;;;;;5004177;28;20448;-79
2023/10/05 02:07:51;;;;;;;5.13;3.33;;;22.50;53.50;;;;;;5007820;28;21010;-79
2023/10/05 02:10:20;;;;;;;3.60;2.73;;;22.40;53.60;;;;;;5016150;28;20440;-78
2023/10/05 02:12:54;;;;;;;4.30;2.97;;;22.40;53.70;;;;;;5014834;28;20472;-79
2023/10/05 02:15:28;;;;;;;3.70;2.87;;;22.40;53.60;;;;;;5015116;28;20436;-79
2023/10/05 02:17:59;;;;;;;4.53;2.87;;;22.40;53.60;;;;;;5009625;28;20460;-79
2023/10/05 02:23:34;;;;;;;3.73;2.60;;;22.40;53.70;;;;;;5014980;28;20526;-79
2023/10/05 02:26:04;;;;;;;3.30;2.43;;;22.40;53.80;;;;;;4996053;28;20498;-80
2023/10/05 02:28:33;;;;;;;3.20;2.73;;;22.40;53.90;;;;;;4996166;28;20501;-78
2023/10/05 02:31:08;;;;;;;3.40;3.00;;;22.40;53.80;;;;;;5001161;28;20432;-80
2023/10/05 02:33:40;;;;;;;3.20;2.80;;;22.40;53.80;;;;;;5016717;28;20967;-80
2023/10/05 02:36:17;;;;;;;5.83;2.90;;;22.40;53.80;;;;;;5002362;28;20450;-80
2023/10/05 02:38:53;;;;;;;7.03;2.90;;;22.40;53.80;;;;;;5008657;28;20428;-80
2023/10/05 02:41:37;;;;;;;4.50;3.20;;;22.30;53.70;;;;;;5017562;28;20527;-80
2023/10/05 02:44:16;;;;;;;2.90;2.50;;;22.40;54.00;;;;;;5012416;28;20458;-80
2023/10/05 02:46:47;;;;;;;4.73;2.80;;;22.30;53.80;;;;;;5016379;28;20456;-79
2023/10/05 02:49:16;;;;;;;3.47;2.70;;;22.30;53.90;;;;;;5014777;28;20510;-80
2023/10/05 02:51:44;;;;;;;3.07;2.53;;;22.30;53.80;;;;;;5016478;28;20471;-79
2023/10/05 02:54:13;;;;;;;3.13;2.80;;;22.30;53.70;;;;;;5017829;28;20562;-80
2023/10/05 02:56:40;;;;;;;3.20;2.60;;;22.30;53.90;;;;;;5014901;28;20455;-79
2023/10/05 02:59:10;;;;;;;4.93;2.67;;;22.30;53.90;;;;;;5006507;28;20503;-80
2023/10/05 03:01:38;;;;;;;2.60;2.40;;;22.30;53.80;;;;;;5024554;28;20467;-80
2023/10/05 03:04:16;;;;;;;4.80;2.40;;;22.30;53.90;;;;;;5038930;28;20483;-81
2023/10/05 03:06:47;;;;;;;3.20;2.60;;;22.30;53.90;;;;;;5037785;28;20416;-80
2023/10/05 03:09:18;;;;;;;2.67;2.47;;;22.30;53.90;;;;;;5036369;28;20436;-80
2023/10/05 03:11:47;;;;;;;3.70;2.43;;;22.30;54.00;;;;;;5019141;28;20437;-80
2023/10/05 03:14:16;;;;;;;3.00;2.70;;;22.30;53.90;;;;;;5017574;28;20515;-80
2023/10/05 03:16:47;;;;;;;4.10;2.83;;;22.30;54.10;;;;;;5017421;28;20509;-79
2023/10/05 03:19:20;;;;;;;3.60;2.57;;;22.30;54.00;;;;;;5017166;28;20448;-79
2023/10/05 03:21:50;;;;;;;2.50;2.20;;;22.30;54.10;;;;;;5016219;28;21051;-78
2023/10/05 03:24:19;;;;;;;4.10;2.50;;;22.30;54.00;;;;;;5008298;28;20551;-80
2023/10/05 03:26:48;;;;;;;2.90;2.43;;;22.30;54.10;;;;;;5014651;28;20444;-79
2023/10/05 03:29:16;;;;;;;3.00;2.33;;;22.30;54.10;;;;;;4998755;28;20532;-80
2023/10/05 03:31:53;;;;;;;2.90;2.20;;;22.30;54.10;;;;;;5007658;28;20428;-80
2023/10/05 03:34:26;;;;;;;3.60;2.20;;;22.30;54.10;;;;;;5013619;28;20471;-80
2023/10/05 03:36:55;;;;;;;2.67;2.47;;;22.30;54.20;;;;;;4998574;28;20889;-79
2023/10/05 03:39:25;;;;;;;2.93;2.20;;;22.20;54.10;;;;;;5012539;28;20519;-80
2023/10/05 03:41:54;;;;;;;2.70;2.50;;;22.30;54.10;;;;;;5015178;28;20429;-79
2023/10/05 03:44:24;;;;;;;4.90;2.37;;;22.20;54.10;;;;;;4999895;28;20481;-80
2023/10/05 03:46:52;;;;;;;2.90;2.60;;;22.30;54.00;;;;;;5007886;28;20448;-80
2023/10/05 03:49:21;;;;;;;3.67;2.47;;;22.30;54.30;;;;;;5002153;28;20433;-79
2023/10/05 03:51:52;;;;;;;4.03;2.33;;;22.20;54.20;;;;;;5009035;28;20468;-79
2023/10/05 03:54:20;;;;;;;4.37;2.30;;;22.20;54.00;;;;;;5016845;28;20527;-79
2023/10/05 03:56:50;;;;;;;2.63;2.40;;;22.20;54.20;;;;;;5020800;28;20460;-78
2023/10/05 03:59:18;;;;;;;2.50;2.30;;;22.20;54.20;;;;;;5020006;28;20432;-80
2023/10/05 04:01:48;;;;;;;3.10;2.47;;;22.20;54.00;;;;;;5020031;28;20536;-79
2023/10/05 04:04:21;;;;;;;3.83;2.07;;;22.20;54.30;;;;;;5020288;28;20457;-79
2023/10/05 04:06:51;;;;;;;3.70;1.90;;;22.20;54.20;;;;;;5009530;28;20441;-79
2023/10/05 04:09:19;;;;;;;2.97;2.67;;;22.20;54.10;;;;;;4999572;28;20446;-80
2023/10/05 04:11:48;;;;;;;2.47;2.17;;;22.20;54.30;;;;;;5008015;28;20508;-80
2023/10/05 04:14:16;;;;;;;3.10;2.70;;;22.20;54.10;;;;;;5006556;28;20480;-79
2023/10/05 04:16:44;;;;;;;3.67;2.33;;;22.20;54.20;;;;;;5019076;28;20472;-78
2023/10/05 04:19:12;;;;;;;4.13;2.33;;;22.20;54.20;;;;;;5012787;28;20477;-79
2023/10/05 04:21:41;;;;;;;2.60;2.40;;;22.20;54.20;;;;;;4999661;28;20437;-79
2023/10/05 04:24:27;;;;;;;2.60;2.40;;;22.20;54.20;;;;;;5047931;23;20544;-77
2023/10/05 04:27:04;;;;;;;2.90;2.20;;;22.20;54.40;;;;;;5054294;28;20446;-76
2023/10/05 04:29:40;;;;;;;3.23;2.00;;;22.10;54.20;;;;;;5054509;28;20438;-76
2023/10/05 04:32:12;;;;;;;2.73;2.30;;;22.10;54.20;;;;;;5050876;28;20459;-76
2023/10/05 04:34:40;;;;;;;3.10;2.17;;;22.10;54.20;;;;;;5053830;28;20463;-76
2023/10/05 04:37:12;;;;;;;2.67;2.10;;;22.10;54.20;;;;;;5049262;28;20940;-76
2023/10/05 04:39:43;;;;;;;2.37;2.17;;;22.10;54.30;;;;;;5035049;28;20451;-76
2023/10/05 04:42:14;;;;;;;2.40;2.20;;;22.10;54.40;;;;;;5034942;28;20455;-76
2023/10/05 04:44:42;;;;;;;1.80;1.70;;;22.10;54.40;;;;;;5034483;28;20483;-76
2023/10/05 04:47:10;;;;;;;3.00;2.13;;;22.10;54.50;;;;;;5034575;28;20448;-76
2023/10/05 04:49:39;;;;;;;2.60;2.33;;;22.10;54.40;;;;;;5034342;28;20450;-76
2023/10/05 04:52:07;;;;;;;3.40;3.00;;;22.10;54.50;;;;;;5050713;28;20454;-76
2023/10/05 04:54:40;;;;;;;3.77;3.27;;;22.10;54.40;;;;;;5044702;28;21004;-76
2023/10/05 04:57:22;;;;;;;5.77;3.63;;;22.10;54.50;;;;;;5029338;28;20471;-76
2023/10/05 04:59:59;;;;;;;2.97;2.67;;;22.10;54.30;;;;;;5025572;28;20452;-77
2023/10/05 05:02:58;;;;;;;4.10;3.47;;;22.00;54.40;;;;;;5034393;28;20493;-75
2023/10/05 05:05:40;;;;;;;8.07;3.80;;;22.00;54.60;;;;;;5014158;28;20519;-75
2023/10/05 05:08:09;;;;;;;4.57;3.40;;;22.00;54.40;;;;;;5023750;28;20458;-77
2023/10/05 05:10:38;;;;;;;4.80;3.50;;;22.00;54.50;;;;;;5034006;28;20448;-75
2023/10/05 05:13:09;;;;;;;4.77;3.20;;;22.00;54.60;;;;;;5033588;28;20448;-76
2023/10/05 05:15:38;;;;;;;4.00;3.57;;;22.00;54.50;;;;;;5032534;28;20529;-76
2023/10/05 05:18:14;;;;;;;5.10;3.30;;;22.00;54.60;;;;;;5026670;28;20443;-76
2023/10/05 05:20:44;;;;;;;4.53;3.70;;;22.00;54.50;;;;;;5026097;28;20474;-76
2023/10/05 05:23:16;;;;;;;4.63;3.10;;;22.00;54.40;;;;;;5032728;28;20448;-74
2023/10/05 05:25:45;;;;;;;5.93;3.60;;;22.00;54.50;;;;;;5033279;28;20463;-77
2023/10/05 05:28:17;;;;;;;4.40;3.53;;;22.00;54.60;;;;;;5033557;28;20451;-76
2023/10/05 05:30:47;;;;;;;5.37;3.50;;;22.00;54.50;;;;;;5031618;28;20434;-76
2023/10/05 05:33:17;;;;;;;3.53;2.90;;;22.00;54.60;;;;;;5013238;28;20452;-76
2023/10/05 05:35:46;;;;;;;4.30;3.57;;;22.00;54.60;;;;;;5022846;28;20479;-76
2023/10/05 05:38:15;;;;;;;5.40;3.70;;;22.00;54.50;;;;;;5031424;28;20482;-77
2023/10/05 05:40:44;;;;;;;4.20;2.63;;;22.00;54.50;;;;;;5033121;28;20543;-76
2023/10/05 05:43:14;;;;;;;4.40;3.50;;;22.00;54.50;;;;;;5032770;28;20958;-75
2023/10/05 05:45:44;;;;;;;4.53;3.37;;;22.00;54.40;;;;;;5033185;28;20447;-76
2023/10/05 05:48:15;;;;;;;5.20;3.60;;;22.00;54.60;;;;;;5033215;28;20501;-76
2023/10/05 05:50:44;;;;;;;3.90;3.10;;;22.00;54.50;;;;;;5032589;28;20484;-76
2023/10/05 05:53:14;;;;;;;5.93;3.53;;;22.00;54.50;;;;;;5032898;28;20451;-75
2023/10/05 05:55:44;;;;;;;6.63;3.60;;;22.00;54.50;;;;;;5032496;28;20479;-76
2023/10/05 05:58:16;;;;;;;4.77;3.07;;;22.00;54.70;;;;;;5032925;28;20447;-76
2023/10/05 06:00:47;;;;;;;3.37;3.07;;;22.00;54.40;;;;;;5032451;28;20458;-76
2023/10/05 06:03:16;;;;;;;5.83;2.93;;;22.00;54.50;;;;;;5032793;28;20498;-76
2023/10/05 06:05:48;;;;;;;4.50;2.80;;;22.00;54.30;;;;;;5032896;28;20451;-77
2023/10/05 06:08:16;;;;;;;3.70;3.00;;;22.10;54.60;;;;;;5032609;28;20567;-76
2023/10/05 06:10:46;;;;;;;6.00;3.10;;;22.10;54.30;;;;;;5032502;28;20522;-76
2023/10/05 06:13:17;;;;;;;4.70;3.07;;;22.10;54.40;;;;;;5024203;28;20523;-76
2023/10/05 06:15:48;;;;;;;3.90;2.77;;;22.10;54.40;;;;;;5032073;28;20517;-76
2023/10/05 06:18:16;;;;;;;3.53;3.20;;;22.10;54.60;;;;;;5033687;28;20436;-76
2023/10/05 06:20:47;;;;;;;4.37;2.37;;;22.10;54.40;;;;;;5033859;28;20452;-76
2023/10/05 06:23:15;;;;;;;5.50;3.03;;;22.10;54.40;;;;;;5034336;28;20455;-76
2023/10/05 06:25:45;;;;;;;4.87;2.90;;;22.20;54.50;;;;;;5032231;28;20434;-76
2023/10/05 06:28:13;;;;;;;3.47;3.17;;;22.20;54.40;;;;;;5032676;28;20448;-76
2023/10/05 06:30:42;;;;;;;4.67;3.17;;;22.20;54.40;;;;;;5032248;28;20448;-77
2023/10/05 06:33:15;;;;;;;3.13;2.83;;;22.20;54.30;;;;;;5035636;28;20451;-76
2023/10/05 06:35:44;;;;;;;3.13;2.73;;;22.30;54.40;;;;;;5038400;28;20544;-76
2023/10/05 06:38:12;;;;;;;3.00;2.30;;;22.30;54.40;;;;;;5038875;28;20509;-76
2023/10/05 06:40:41;;;;;;;10.93;2.93;;;22.30;54.20;;;;;;5038375;28;20454;-77
2023/10/05 06:43:10;;;;;;;3.57;2.40;;;22.40;54.40;;;;;;5038782;28;20964;-76
2023/10/05 06:45:44;;;;;;;4.80;2.77;;;22.40;54.30;;;;;;5039258;28;20474;-77
2023/10/05 06:48:15;;;;;;;3.53;2.53;;;22.40;54.20;;;;;;5041073;28;20446;-77
2023/10/05 06:50:46;;;;;;;5.80;2.87;;;22.50;54.30;;;;;;5037941;28;20481;-76
2023/10/05 06:53:15;;;;;;;3.63;2.87;;;22.50;54.30;;;;;;5018927;28;20511;-76
2023/10/05 06:55:43;;;;;;;4.20;2.60;;;22.60;54.20;;;;;;5027841;28;20493;-76
2023/10/05 06:58:47;;;;;;;3.90;2.30;;;22.60;54.20;;;;;;5038777;28;20439;-76
2023/10/05 07:01:21;;;;;;;4.13;2.60;;;22.60;54.00;;;;;;5017567;28;20456;-77
2023/10/05 08:08:58;;;;;;;4.20;3.37;;;22.90;54.70;;;;;;4824059;29;20498;-76
2023/10/05 08:11:45;;;;;;;4.83;3.43;;;22.80;54.80;;;;;;4891289;29;20496;-81
2023/10/05 08:14:21;;;;;;;4.77;3.07;;;22.80;54.70;;;;;;4980350;28;20457;-75
2023/10/05 08:16:50;;;;;;;5.13;3.50;;;22.90;54.70;;;;;;4982135;28;20477;-76
2023/10/05 08:19:19;;;;;;;5.87;3.80;;;22.90;54.70;;;;;;4992569;28;20453;-75
2023/10/05 08:21:47;;;;;;;3.87;3.03;;;22.90;54.70;;;;;;4990342;28;20450;-75
2023/10/05 08:24:18;;;;;;;4.83;3.03;;;22.90;54.80;;;;;;5021969;28;20468;-75
2023/10/05 08:26:51;;;;;;;7.13;3.47;;;23.00;54.70;;;;;;5032495;28;20451;-75
2023/10/05 08:29:22;;;;;;;7.60;3.40;;;22.90;54.70;;;;;;5033448;28;20482;-76
2023/10/05 08:31:51;;;;;;;6.30;3.47;;;23.00;54.80;;;;;;5030753;28;20482;-74
2023/10/05 08:34:21;;;;;;;6.87;4.00;;;22.90;54.70;;;;;;5033198;28;20467;-75
2023/10/05 08:36:53;;;;;;;6.10;3.70;;;23.00;54.90;;;;;;5033570;28;20471;-79
2023/10/05 08:39:30;;;;;;;10.47;3.40;;;23.00;55.70;;;;;;5038200;28;20533;-78
2023/10/05 08:45:46;;;;;;;7.70;3.53;;;21.30;65.20;;;;;;5015415;28;20446;-79
2023/10/05 08:48:20;;;;;;;10.23;3.80;;;20.90;68.60;;;;;;5030620;28;20456;-79
2023/10/05 08:50:50;;;;;;;13.67;3.37;;;20.50;70.90;;;;;;5040892;28;20478;-80
2023/10/05 08:53:25;;;;;;;11.33;3.30;;;20.40;72.90;;;;;;5041602;28;20470;-80
2023/10/05 08:55:58;;;;;;;10.13;3.63;;;20.30;75.70;;;;;;5043643;28;20465;-80
2023/10/05 08:58:28;;;;;;;13.10;4.20;;;20.10;77.10;;;;;;5042947;28;20497;-80
2023/10/05 09:00:59;;;;;;;14.70;3.93;;;20.20;78.60;;;;;;5044101;28;20519;-81
2023/10/05 09:04:49;;;;;;;18.57;3.30;;;20.00;80.40;;;;;;5045193;28;20439;-80
2023/10/05 09:07:55;;;;;;;9.60;3.70;;;19.90;83.10;;;;;;4887492;29;20458;-80
2023/10/05 09:10:51;;;;;;;8.83;3.53;;;19.80;86.70;;;;;;4954401;29;20447;-81
2023/10/05 09:13:27;;;;;;;10.43;3.90;;;19.80;88.60;;;;;;4969444;28;20446;-82
2023/10/05 09:15:57;;;;;;;9.10;3.00;;;19.70;90.50;;;;;;4978231;28;20454;-81
2023/10/05 09:18:33;;;;;;;9.97;4.50;;;19.60;91.10;;;;;;4977866;28;20443;-83
2023/10/05 09:21:12;;;;;;;8.80;3.00;;;19.60;92.50;;;;;;4977184;28;20447;-84
2023/10/05 09:23:43;;;;;;;12.60;3.70;;;19.40;93.50;;;;;;4970389;28;20479;-82
2023/10/05 09:26:33;;;;;;;9.13;3.53;;;19.50;93.60;;;;;;4973151;29;20426;-82
2023/10/05 09:29:23;;;;;;;11.70;3.93;;;19.50;94.50;;;;;;4977055;28;20486;-86
2023/10/05 09:35:26;;;;;;;9.03;3.90;;;19.60;95.30;;;;;;4855485;29;20456;-82
2023/10/05 09:49:37;;;;;;;18.30;5.30;;;19.80;95.40;;;;;;4975180;28;20467;-85
2023/10/05 09:53:16;;;;;;;11.87;3.60;;;19.80;95.50;;;;;;5048909;28;20438;-81
2023/10/05 09:56:09;;;;;;;8.30;4.23;;;20.00;96.10;;;;;;5022659;28;20431;-82
2023/10/05 09:59:15;;;;;;;7.70;3.20;;;19.90;96.10;;;;;;5048613;28;20431;-80
2023/10/05 10:02:04;;;;;;;8.77;3.67;;;19.90;96.50;;;;;;5055281;28;20440;-79
2023/10/05 10:04:44;;;;;;;7.57;3.63;;;20.10;96.10;;;;;;5055618;28;20455;-79
2023/10/05 10:08:07;;;;;;;8.63;3.43;;;20.20;95.50;;;;;;5044523;28;20482;-80
2023/10/05 10:11:06;;;;;;;8.70;3.43;;;20.30;95.40;;;;;;5039863;28;20450;-78
2023/10/05 10:13:37;;;;;;;10.30;3.23;;;20.40;95.00;;;;;;5026467;28;20468;-80
2023/10/05 10:16:21;;;;;;;9.50;2.50;;;20.50;94.50;;;;;;5030068;28;20483;-78
2023/10/05 10:18:53;;;;;;;7.90;2.60;;;20.50;94.90;;;;;;5042024;28;20443;-80
2023/10/05 10:21:34;;;;;;;8.10;3.30;;;20.50;94.20;;;;;;5041154;28;20474;-80
2023/10/05 10:24:06;;;;;;;6.77;2.70;;;20.70;94.20;;;;;;5058675;22;20545;-77
2023/10/05 10:26:39;;;;;;;5.30;3.10;;;20.70;93.30;;;;;;5031253;28;20443;-78
2023/10/05 10:29:11;;;;;;;6.70;3.60;;;20.60;93.90;;;;;;5031052;28;21008;-77
2023/10/05 10:31:47;;;;;;;6.97;3.37;;;20.60;93.90;;;;;;5029871;28;20451;-79
2023/10/05 10:34:41;;;;;;;6.33;2.50;;;20.90;97.10;;;;;;5031160;28;20513;-79
2023/10/05 10:37:11;;;;;;;5.80;2.60;;;21.50;94.20;;;;;;5032289;28;20511;-81
2023/10/05 10:39:47;;;;;;;7.50;2.70;;;22.00;92.00;;;;;;5035015;28;20435;-79
2023/10/05 10:42:18;;;;;;;4.37;2.50;;;22.30;90.00;;;;;;5033533;28;20508;-80
2023/10/05 10:44:57;;;;;;;6.90;2.77;;;22.60;87.20;;;;;;5033613;28;20459;-80
2023/10/05 10:47:27;;;;;;;8.93;2.63;;;22.80;84.90;;;;;;5024747;28;20473;-80
2023/10/05 10:50:10;;;;;;;4.67;2.73;;;22.90;83.20;;;;;;5033274;28;20427;-79
2023/10/05 10:52:38;;;;;;;6.30;2.67;;;23.00;81.50;;;;;;5027310;28;20435;-81
2023/10/05 10:55:14;;;;;;;5.90;2.93;;;23.00;80.40;;;;;;5033895;28;20459;-80
2023/10/05 10:57:46;;;;;;;7.40;2.87;;;23.10;79.30;;;;;;5034075;28;20466;-79
2023/10/05 11:03:11;;;;;;;3.50;2.23;;;23.30;77.80;;;;;;5032251;28;20451;-79
2023/10/05 11:05:40;;;;;;;6.10;3.00;;;23.30;76.60;;;;;;5028271;28;20527;-77
2023/10/05 11:08:10;;;;;;;7.77;3.17;;;23.30;76.20;;;;;;5033025;28;20447;-79
2023/10/05 11:10:40;;;;;;;4.50;3.10;;;23.40;76.00;;;;;;5033405;28;20447;-78
2023/10/05 11:13:14;;;;;;;4.40;3.03;;;23.40;75.00;;;;;;5031569;28;20443;-79
2023/10/05 11:15:57;;;;;;;3.40;2.73;;;23.50;74.50;;;;;;5017554;28;20460;-79
2023/10/05 11:18:27;;;;;;;6.97;3.30;;;23.50;74.00;;;;;;5024178;28;20475;-78
2023/10/05 11:20:55;;;;;;;5.70;2.97;;;23.50;73.30;;;;;;5034998;28;20490;-78
2023/10/05 11:23:25;;;;;;;5.10;3.23;;;23.50;73.10;;;;;;5035904;28;20410;-78
2023/10/05 11:26:17;;;;;;;7.00;3.10;;;23.50;72.80;;;;;;5035388;28;20476;-79
2023/10/05 11:28:44;;;;;;;6.17;3.40;;;23.60;72.70;;;;;;5030680;28;20432;-80
2023/10/05 11:31:12;;;;;;;5.33;3.30;;;23.80;72.90;;;;;;5037583;28;20431;-80
2023/10/05 11:34:04;;;;;;;4.73;3.30;;;24.20;73.10;;;;;;5035925;28;20463;-80
2023/10/05 11:36:52;;;;;;;5.23;3.03;;;24.60;71.10;;;;;;5029481;28;20438;-80
2023/10/05 11:39:27;;;;;;;3.77;3.30;;;24.80;69.20;;;;;;5032846;28;20475;-80
2023/10/05 11:41:58;;;;;;;5.43;3.37;;;24.90;68.50;;;;;;5034877;28;20477;-80
2023/10/05 11:44:27;;;;;;;4.47;3.37;;;25.00;67.60;;;;;;5034622;28;20463;-80
2023/10/05 11:46:55;;;;;;;4.30;3.00;;;25.00;67.00;;;;;;5034631;28;20435;-81
2023/10/05 11:49:30;;;;;;;5.60;3.70;;;25.00;66.50;;;;;;5034551;28;20458;-78
2023/10/05 11:51:59;;;;;;;4.40;3.83;;;24.90;66.60;;;;;;5034335;28;20407;-79
2023/10/05 11:54:29;;;;;;;9.07;3.83;;;24.90;66.70;;;;;;5031078;28;20566;-80
2023/10/05 11:57:00;;;;;;;3.97;3.27;;;24.80;66.80;;;;;;5035468;28;20526;-80
2023/10/05 11:59:31;;;;;;;4.40;3.30;;;24.80;66.90;;;;;;5034568;28;20574;-80
2023/10/05 12:01:58;;;;;;;4.73;3.20;;;24.70;66.90;;;;;;5037050;28;20438;-79
2023/10/05 12:04:27;;;;;;;4.93;3.70;;;24.70;67.20;;;;;;5036661;28;20463;-80
2023/10/05 12:06:59;;;;;;;6.50;3.30;;;24.70;67.20;;;;;;5036683;28;20492;-78
2023/10/05 12:09:32;;;;;;;6.40;3.30;;;24.80;67.40;;;;;;5036703;28;20490;-80
2023/10/05 12:12:03;;;;;;;4.73;3.00;;;25.20;66.90;;;;;;5031836;28;20523;-80
2023/10/05 12:14:31;;;;;;;6.90;3.33;;;25.20;65.60;;;;;;5037259;28;20495;-80
2023/10/05 12:17:00;;;;;;;4.40;3.40;;;25.20;65.20;;;;;;5036818;28;20965;-80
2023/10/05 12:19:33;;;;;;;6.33;3.70;;;25.10;65.40;;;;;;5036323;28;20529;-79
2023/10/05 12:22:02;;;;;;;4.50;3.77;;;25.30;66.30;;;;;;5045013;28;20416;-80
2023/10/05 12:24:31;;;;;;;4.27;3.40;;;26.20;66.30;;;;;;5034995;28;20565;-80
2023/10/05 12:26:59;;;;;;;7.10;3.73;;;27.70;63.40;;;;;;5041677;28;20429;-77
2023/10/05 12:29:30;;;;;;;4.03;3.50;;;28.90;58.90;;;;;;5031310;28;20489;-76
2023/10/05 12:32:06;;;;;;;4.87;3.33;;;29.00;56.80;;;;;;5034698;28;20471;-77
2023/10/05 12:34:35;;;;;;;3.67;3.10;;;28.60;55.70;;;;;;5028219;28;20455;-76
2023/10/05 12:37:08;;;;;;;3.47;3.17;;;29.10;59.30;;;;;;5034279;28;20454;-75
2023/10/05 12:39:36;;;;;;;4.73;3.10;;;30.50;55.30;;;;;;5033459;28;20542;-77
2023/10/05 12:42:06;;;;;;;3.60;3.20;;;32.40;52.30;;;;;;5033411;28;20850;-77
2023/10/05 12:44:36;;;;;;;2.80;2.60;;;33.00;48.00;;;;;;5034706;28;20901;-77
2023/10/05 12:47:07;;;;;;;4.63;3.63;;;32.60;47.60;;;;;;5029040;28;20494;-75
2023/10/05 12:49:36;;;;;;;3.60;3.30;;;31.90;48.40;;;;;;5032821;28;20455;-77
2023/10/05 12:52:05;;;;;;;3.63;3.33;;;31.20;49.60;;;;;;5034857;28;20443;-76
2023/10/05 12:54:34;;;;;;;5.00;3.53;;;30.70;50.30;;;;;;5028493;28;20530;-75
2023/10/05 12:57:10;;;;;;;4.70;3.33;;;30.10;50.70;;;;;;5040410;28;20444;-80
2023/10/05 12:59:43;;;;;;;4.77;3.53;;;29.60;52.20;;;;;;5035043;28;20509;-80
2023/10/05 13:02:15;;;;;;;3.43;3.13;;;29.10;52.80;;;;;;5038931;28;20447;-81
2023/10/05 13:04:43;;;;;;;3.67;3.37;;;28.60;53.70;;;;;;5028855;28;20472;-80
2023/10/05 13:07:16;;;;;;;4.50;3.20;;;28.20;54.40;;;;;;5034378;28;20443;-79
2023/10/05 13:09:46;;;;;;;5.23;3.30;;;27.80;55.50;;;;;;5028285;28;20455;-80
2023/10/05 13:12:16;;;;;;;3.47;3.17;;;27.50;56.40;;;;;;5035663;28;20492;-79
2023/10/05 13:14:46;;;;;;;5.60;2.87;;;27.30;56.90;;;;;;5024186;28;20542;-81
2023/10/05 13:17:14;;;;;;;3.60;3.30;;;27.00;57.50;;;;;;5032148;28;20486;-78
2023/10/05 13:19:44;;;;;;;5.20;3.40;;;26.90;58.00;;;;;;5036176;28;20442;-80
2023/10/05 13:22:12;;;;;;;3.70;3.27;;;26.70;58.40;;;;;;5034642;28;20490;-80
2023/10/05 13:24:40;;;;;;;3.33;3.07;;;26.60;58.80;;;;;;5032158;28;20475;-80
2023/10/05 13:27:09;;;;;;;3.47;3.20;;;26.50;59.30;;;;;;5032327;28;20448;-80
2023/10/05 13:29:42;;;;;;;6.27;3.50;;;26.40;59.60;;;;;;5032897;28;20462;-79
2023/10/05 13:32:13;;;;;;;3.23;2.90;;;26.30;59.90;;;;;;5032877;28;20499;-79
2023/10/05 13:34:45;;;;;;;6.83;3.00;;;26.20;60.30;;;;;;5030606;28;20506;-79
2023/10/05 13:37:14;;;;;;;5.20;3.10;;;26.20;60.20;;;;;;5033619;28;20426;-78
2023/10/05 13:39:44;;;;;;;5.30;3.17;;;26.20;60.60;;;;;;5034180;28;20467;-78
2023/10/05 13:42:18;;;;;;;3.90;3.20;;;26.20;60.70;;;;;;5034577;28;20432;-80
2023/10/05 13:44:46;;;;;;;4.07;3.00;;;26.10;60.60;;;;;;5026985;28;20467;-79
2023/10/05 13:47:17;;;;;;;3.67;2.77;;;26.10;60.80;;;;;;5034609;28;20418;-80
2023/10/05 13:49:51;;;;;;;4.60;2.70;;;26.00;60.90;;;;;;5027815;28;20406;-79
2023/10/05 13:52:20;;;;;;;3.97;2.60;;;25.90;61.20;;;;;;5033343;28;20429;-78
2023/10/05 13:54:49;;;;;;;2.87;2.63;;;25.90;61.20;;;;;;5039666;28;20454;-78
2023/10/05 13:57:20;;;;;;;3.30;2.83;;;25.80;61.40;;;;;;5038743;28;20956;-80
2023/10/05 13:59:48;;;;;;;5.27;3.37;;;25.80;61.60;;;;;;5034625;28;20467;-76
2023/10/05 14:02:18;;;;;;;3.30;2.80;;;25.80;61.70;;;;;;5032896;28;20476;-78
2023/10/05 14:04:46;;;;;;;3.30;2.90;;;25.80;61.80;;;;;;5032184;28;20527;-79
2023/10/05 14:07:15;;;;;;;4.60;3.00;;;25.90;62.70;;;;;;5032256;28;20424;-78
2023/10/05 14:09:44;;;;;;;4.50;3.20;;;26.00;61.50;;;;;;5023192;28;20447;-76
2023/10/05 14:12:12;;;;;;;4.17;2.90;;;26.00;61.20;;;;;;5032183;28;20453;-78
2023/10/05 14:14:40;;;;;;;3.77;3.20;;;26.00;61.10;;;;;;5033817;28;20469;-79
2023/10/05 14:17:10;;;;;;;3.27;2.60;;;25.90;61.20;;;;;;5034227;28;20447;-79
2023/10/05 14:19:40;;;;;;;4.07;2.80;;;25.90;61.20;;;;;;5048734;28;20453;-79
2023/10/05 14:22:12;;;;;;;3.73;2.83;;;25.90;61.50;;;;;;5034080;28;20527;-77
2023/10/05 14:24:41;;;;;;;3.63;2.80;;;25.90;61.40;;;;;;5034823;28;20467;-81
2023/10/05 14:27:10;;;;;;;3.87;2.67;;;25.90;61.60;;;;;;5036633;28;20436;-81
2023/10/05 14:29:38;;;;;;;3.90;2.97;;;26.40;64.40;;;;;;5031366;28;20439;-81
2023/10/05 14:32:06;;;;;;;4.00;2.90;;;27.40;59.60;;;;;;5037115;28;20440;-81
2023/10/05 14:34:35;;;;;;;3.93;3.00;;;28.40;58.60;;;;;;5037654;28;20833;-79
2023/10/05 14:37:05;;;;;;;6.00;2.77;;;29.30;55.00;;;;;;5037880;28;20440;-81
2023/10/05 14:39:34;;;;;;;2.00;1.90;;;29.10;53.90;;;;;;5037357;28;20474;-80
2023/10/05 14:42:04;;;;;;;2.70;2.33;;;28.70;54.00;;;;;;5037101;28;20492;-81
2023/10/05 14:44:36;;;;;;;4.40;2.60;;;28.30;54.30;;;;;;5036666;28;20480;-80
2023/10/05 14:47:11;;;;;;;3.13;2.87;;;28.00;55.10;;;;;;5034523;28;20418;-79